createdAt,value
2023-05-10T00:01:39.148Z,100843.09
2023-05-10T00:04:06.853Z,100842.69
2023-05-10T00:06:36.180Z,100839.81
2023-05-10T00:09:04.504Z,100839.38
2023-05-10T00:11:32.160Z,100850.09
2023-05-10T00:13:59.748Z,100838.53
2023-05-10T00:16:27.402Z,100841.22
2023-05-10T00:18:56.879Z,100842.06
2023-05-10T00:21:24.506Z,100837.31
2023-05-10T00:23:53.449Z,100825.75
2023-05-10T00:26:22.992Z,100831.13
2023-05-10T00:28:50.690Z,100831.97
2023-05-10T00:31:18.324Z,100824.59
2023-05-10T00:33:46.215Z,100820.69
2023-05-10T00:36:13.873Z,100821.72
2023-05-10T00:38:41.456Z,100817.41
2023-05-10T00:41:10.471Z,100814.72
2023-05-10T00:43:38.232Z,100814.94
2023-05-10T00:46:06.287Z,100811.22
2023-05-10T00:48:33.989Z,100807.13
2023-05-10T00:51:02.733Z,100809.81
2023-05-10T00:53:33.014Z,100811.88
2023-05-10T00:56:01.020Z,100808.59
2023-05-10T00:58:31.878Z,100811.03
2023-05-10T01:01:00.768Z,100812.94
2023-05-10T01:03:28.497Z,100811.28
2023-05-10T01:05:56.316Z,100802.25
2023-05-10T01:08:24.147Z,100802.69
2023-05-10T01:10:52.081Z,100800.66
2023-05-10T01:13:30.392Z,100797.78
2023-05-10T01:16:00.770Z,100792.25
2023-05-10T01:18:29.933Z,100788.38
2023-05-10T01:21:16.729Z,100794.84
2023-05-10T01:24:17.694Z,100791.38
2023-05-10T01:27:22.878Z,100789.59
2023-05-10T01:30:15.391Z,100789.44
2023-05-10T01:32:51.359Z,100785.97
2023-05-10T01:35:23.750Z,100788.94
2023-05-10T01:38:00.821Z,100785.09
2023-05-10T01:40:34.399Z,100782.00
2023-05-10T01:43:05.024Z,100790.69
2023-05-10T01:45:36.077Z,100786.41
2023-05-10T01:48:11.444Z,100789.13
2023-05-10T01:50:44.311Z,100784.00
2023-05-10T01:53:14.080Z,100779.50
2023-05-10T01:55:47.148Z,100777.69
2023-05-10T01:58:17.487Z,100782.03
2023-05-10T02:00:47.160Z,100779.16
2023-05-10T02:03:18.200Z,100785.75
2023-05-10T02:05:48.003Z,100778.94
2023-05-10T02:08:17.363Z,100781.22
2023-05-10T02:10:46.869Z,100773.63
2023-05-10T02:13:16.264Z,100778.38
2023-05-10T02:15:45.282Z,100779.19
2023-05-10T02:18:14.197Z,100782.91
2023-05-10T02:20:44.997Z,100787.66
2023-05-10T02:23:13.432Z,100782.31
2023-05-10T02:25:41.646Z,100791.97
2023-05-10T02:28:12.428Z,100787.25
2023-05-10T02:30:41.019Z,100789.31
2023-05-10T02:33:09.551Z,100784.22
2023-05-10T02:35:39.990Z,100792.44
2023-05-10T02:38:11.056Z,100784.22
2023-05-10T02:40:39.370Z,100788.75
2023-05-10T02:43:11.241Z,100784.88
2023-05-10T02:45:40.821Z,100777.66
2023-05-10T02:48:08.850Z,100777.03
2023-05-10T02:50:38.740Z,100782.41
2023-05-10T02:53:12.887Z,100778.06
2023-05-10T02:55:43.075Z,100776.22
2023-05-10T02:58:11.046Z,100765.16
2023-05-10T03:00:38.878Z,100774.78
2023-05-10T03:03:06.515Z,100763.06
2023-05-10T03:05:34.241Z,100768.00
2023-05-10T03:08:04.933Z,100766.13
2023-05-10T03:10:35.754Z,100771.69
2023-05-10T03:13:17.565Z,100760.19
2023-05-10T03:15:57.312Z,100766.13
2023-05-10T03:18:31.376Z,100768.81
2023-05-10T03:21:01.734Z,100761.84
2023-05-10T03:23:36.138Z,100766.53
2023-05-10T03:26:07.359Z,100765.75
2023-05-10T03:28:36.226Z,100767.38
2023-05-10T03:31:06.352Z,100769.00
2023-05-10T03:33:34.040Z,100765.94
2023-05-10T03:36:01.985Z,100769.84
2023-05-10T03:38:30.681Z,100770.06
2023-05-10T03:40:58.404Z,100765.72
2023-05-10T03:43:27.361Z,100765.31
2023-05-10T03:45:55.486Z,100761.63
2023-05-10T03:48:23.065Z,100767.59
2023-05-10T03:50:51.138Z,100765.94
2023-05-10T03:53:19.841Z,100769.84
2023-05-10T03:55:47.491Z,100768.22
2023-05-10T03:58:15.204Z,100766.56
2023-05-10T04:00:45.980Z,100768.00
2023-05-10T04:03:14.353Z,100761.00
2023-05-10T04:05:42.203Z,100762.25
2023-05-10T04:08:09.823Z,100751.94
2023-05-10T04:10:37.470Z,100757.09
2023-05-10T04:13:05.194Z,100759.13
2023-05-10T04:15:32.813Z,100759.97
2023-05-10T04:18:01.998Z,100759.13
2023-05-10T04:20:30.031Z,100756.22
2023-05-10T04:22:57.613Z,100758.66
2023-05-10T04:25:25.252Z,100754.53
2023-05-10T04:27:53.806Z,100745.81
2023-05-10T04:30:21.805Z,100748.25
2023-05-10T04:32:49.416Z,100745.06
2023-05-10T04:35:18.558Z,100747.09
2023-05-10T04:37:46.185Z,100745.97
2023-05-10T04:40:14.538Z,100748.78
2023-05-10T04:42:43.180Z,100751.84
2023-05-10T04:45:11.671Z,100752.63
2023-05-10T04:47:39.288Z,100754.78
2023-05-10T04:50:08.213Z,100746.38
2023-05-10T04:52:37.387Z,100752.72
2023-05-10T04:55:05.471Z,100753.59
2023-05-10T04:57:33.096Z,100749.56
2023-05-10T05:00:02.639Z,100750.44
2023-05-10T05:02:30.560Z,100753.13
2023-05-10T05:04:59.698Z,100744.63
2023-05-10T05:07:27.391Z,100743.97
2023-05-10T05:09:56.425Z,100740.59
2023-05-10T05:12:24.059Z,100743.41
2023-05-10T05:14:51.727Z,100748.22
2023-05-10T05:17:20.437Z,100745.63
2023-05-10T05:19:48.109Z,100750.09
2023-05-10T05:22:16.505Z,100749.69
2023-05-10T05:24:45.964Z,100751.63
2023-05-10T05:27:15.002Z,100744.78
2023-05-10T05:29:42.598Z,100749.56
2023-05-10T05:32:10.229Z,100740.75
2023-05-10T05:34:37.854Z,100739.16
2023-05-10T05:37:05.470Z,100738.31
2023-05-10T05:39:33.048Z,100747.75
2023-05-10T05:42:00.593Z,100738.88
2023-05-10T05:44:29.843Z,100752.41
2023-05-10T05:46:57.496Z,100748.22
2023-05-10T05:49:25.141Z,100750.63
2023-05-10T05:51:52.832Z,100749.81
2023-05-10T05:54:20.526Z,100752.78
2023-05-10T05:56:48.144Z,100740.25
2023-05-10T05:59:15.725Z,100737.88
2023-05-10T06:01:44.679Z,100746.75
2023-05-10T06:04:12.505Z,100746.25
2023-05-10T06:06:40.241Z,100740.13
2023-05-10T06:09:07.853Z,100742.31
2023-05-10T06:11:35.529Z,100725.59
2023-05-10T06:14:04.725Z,100736.25
2023-05-10T06:16:32.675Z,100733.31
2023-05-10T06:19:01.873Z,100733.94
2023-05-10T06:21:29.476Z,100734.97
2023-05-10T06:23:57.108Z,100747.06
2023-05-10T06:26:24.776Z,100743.41
2023-05-10T06:28:52.392Z,100736.25
2023-05-10T06:31:20.454Z,100741.09
2023-05-10T06:33:48.064Z,100738.94
2023-05-10T06:36:17.241Z,100741.34
2023-05-10T06:38:44.904Z,100738.19
2023-05-10T06:41:12.589Z,100744.50
2023-05-10T06:43:42.143Z,100750.56
2023-05-10T06:46:09.779Z,100751.03
2023-05-10T06:48:37.437Z,100737.97
2023-05-10T06:51:05.254Z,100742.63
2023-05-10T06:53:34.637Z,100751.81
2023-05-10T06:56:04.421Z,100752.03
2023-05-10T06:58:33.609Z,100757.75
2023-05-10T07:01:04.377Z,100741.47
2023-05-10T07:03:32.071Z,100744.41
2023-05-10T07:06:04.075Z,100751.03
2023-05-10T07:08:32.209Z,100755.38
2023-05-10T07:11:06.318Z,100753.28
2023-05-10T07:13:34.354Z,100752.84
2023-05-10T07:16:03.037Z,100752.09
2023-05-10T07:18:30.734Z,100755.94
2023-05-10T07:20:59.388Z,100758.06
2023-05-10T07:23:27.040Z,100757.88
2023-05-10T07:25:55.179Z,100758.31
2023-05-10T07:28:24.215Z,100753.81
2023-05-10T07:30:52.659Z,100755.78
2023-05-10T07:33:20.377Z,100758.03
2023-05-10T07:35:48.165Z,100756.78
2023-05-10T07:38:15.861Z,100759.03
2023-05-10T07:40:43.484Z,100752.72
2023-05-10T07:43:11.101Z,100748.69
2023-05-10T07:45:40.124Z,100754.47
2023-05-10T07:48:08.195Z,100754.19
2023-05-10T07:50:35.839Z,100748.22
2023-05-10T07:53:03.539Z,100740.69
2023-05-10T07:55:31.220Z,100756.03
2023-05-10T07:57:58.813Z,100754.91
2023-05-10T08:00:26.693Z,100757.94
2023-05-10T08:02:55.838Z,100756.06
2023-05-10T08:05:23.597Z,100757.69
2023-05-10T08:07:51.633Z,100760.13
2023-05-10T08:10:19.463Z,100760.69
2023-05-10T08:12:47.133Z,100764.47
2023-05-10T08:15:14.875Z,100760.63
2023-05-10T08:17:42.617Z,100765.97
2023-05-10T08:20:13.783Z,100776.44
2023-05-10T08:22:41.536Z,100764.94
2023-05-10T08:25:09.939Z,100769.88
2023-05-10T08:27:37.534Z,100773.50
2023-05-10T08:30:05.793Z,100783.31
2023-05-10T08:32:33.713Z,100778.31
2023-05-10T08:35:01.362Z,100772.53
2023-05-10T08:37:33.980Z,100783.22
2023-05-10T08:40:01.572Z,100782.41
2023-05-10T08:42:32.123Z,100780.72
2023-05-10T08:45:01.553Z,100779.06
2023-05-10T08:47:29.977Z,100784.25
2023-05-10T08:50:00.629Z,100781.31
2023-05-10T08:52:30.579Z,100785.69
2023-05-10T08:55:00.176Z,100784.41
2023-05-10T08:57:28.160Z,100784.63
2023-05-10T08:59:55.870Z,100786.25
2023-05-10T09:02:25.289Z,100787.38
2023-05-10T09:04:53.221Z,100789.84
2023-05-10T09:07:22.361Z,100791.03
2023-05-10T09:09:50.863Z,100791.28
2023-05-10T09:12:19.849Z,100797.69
2023-05-10T09:14:48.362Z,100798.34
2023-05-10T09:17:16.049Z,100808.44
2023-05-10T09:19:43.770Z,100810.88
2023-05-10T09:22:12.038Z,100804.66
2023-05-10T09:24:43.370Z,100807.94
2023-05-10T09:27:11.119Z,100809.22
2023-05-10T09:29:44.379Z,100807.84
2023-05-10T09:32:13.857Z,100807.09
2023-05-10T09:34:42.116Z,100805.22
2023-05-10T09:37:09.720Z,100798.09
2023-05-10T09:39:39.083Z,100809.78
2023-05-10T09:42:08.250Z,100812.28
2023-05-10T09:44:36.794Z,100800.34
2023-05-10T09:47:06.210Z,100812.28
2023-05-10T09:49:34.187Z,100822.88
2023-05-10T09:52:03.336Z,100813.00
2023-05-10T09:54:31.059Z,100811.91
2023-05-10T09:56:58.904Z,100815.34
2023-05-10T09:59:27.930Z,100814.38
2023-05-10T10:01:59.138Z,100817.69
2023-05-10T10:04:28.691Z,100824.94
2023-05-10T10:07:04.750Z,100823.91
2023-05-10T10:09:33.642Z,100822.88
2023-05-10T10:12:01.754Z,100832.31
2023-05-10T10:14:29.731Z,100822.66
2023-05-10T10:17:07.777Z,100838.25
2023-05-10T10:19:38.287Z,100831.31
2023-05-10T10:22:06.772Z,100837.19
2023-05-10T10:24:34.769Z,100839.06
2023-05-10T10:27:11.070Z,100833.19
2023-05-10T10:29:44.087Z,100838.91
2023-05-10T10:32:21.659Z,100840.56
2023-05-10T10:34:51.161Z,100841.72
2023-05-10T10:37:18.866Z,100839.31
2023-05-10T10:39:46.516Z,100842.06
2023-05-10T10:42:14.158Z,100840.06
2023-05-10T10:44:42.874Z,100840.97
2023-05-10T10:47:30.100Z,100848.72
2023-05-10T10:50:10.302Z,100849.31
2023-05-10T10:52:39.304Z,100846.50
2023-05-10T10:55:09.165Z,100846.53
2023-05-10T10:57:48.000Z,100843.56
2023-05-10T11:00:31.434Z,100839.28
2023-05-10T11:03:00.924Z,100839.13
2023-05-10T11:05:47.876Z,100848.53
2023-05-10T11:08:23.026Z,100844.94
2023-05-10T11:11:07.808Z,100845.50
2023-05-10T11:13:39.324Z,100841.50
2023-05-10T11:16:18.612Z,100846.91
2023-05-10T11:19:06.270Z,100847.38
2023-05-10T11:21:36.398Z,100842.97
2023-05-10T11:24:07.121Z,100849.00
2023-05-10T11:26:37.127Z,100852.44
2023-05-10T11:29:05.985Z,100849.81
2023-05-10T11:31:35.135Z,100854.44
2023-05-10T11:34:03.635Z,100848.28
2023-05-10T11:36:38.441Z,100855.19
2023-05-10T11:39:06.836Z,100849.81
2023-05-10T11:41:34.676Z,100859.88
2023-05-10T11:44:02.371Z,100862.31
2023-05-10T11:46:30.566Z,100859.00
2023-05-10T11:49:02.530Z,100867.31
2023-05-10T11:51:30.204Z,100863.69
2023-05-10T11:53:59.457Z,100877.16
2023-05-10T11:56:28.055Z,100876.25
2023-05-10T11:58:57.499Z,100880.75
2023-05-10T12:01:26.182Z,100883.94
2023-05-10T12:03:56.185Z,100888.09
2023-05-10T12:06:24.338Z,100903.03
2023-05-10T12:08:54.532Z,100900.22
2023-05-10T12:11:26.851Z,100917.13
2023-05-10T12:13:54.659Z,100921.72
2023-05-10T12:16:24.402Z,100925.22
2023-05-10T12:18:52.961Z,100924.88
2023-05-10T12:21:22.456Z,100933.63
2023-05-10T12:23:52.912Z,100938.38
2023-05-10T12:26:25.741Z,100944.25
2023-05-10T12:28:53.344Z,100947.25
2023-05-10T12:31:21.017Z,100956.88
2023-05-10T12:33:50.262Z,100961.50
2023-05-10T12:36:18.873Z,100962.44
2023-05-10T12:38:48.983Z,100965.66
2023-05-10T12:41:18.294Z,100969.53
2023-05-10T12:43:47.464Z,100970.09
2023-05-10T12:46:16.702Z,100978.69
2023-05-10T12:48:46.267Z,100977.63
2023-05-10T12:51:16.626Z,100986.53
2023-05-10T12:53:48.651Z,100984.53
2023-05-10T12:56:17.172Z,100988.63
2023-05-10T12:58:48.805Z,100986.28
2023-05-10T13:01:17.903Z,100992.28
2023-05-10T13:03:45.564Z,100994.75
2023-05-10T13:06:14.390Z,100987.72
2023-05-10T13:08:41.994Z,100993.69
2023-05-10T13:11:09.734Z,100992.66
2023-05-10T13:13:37.359Z,100991.34
2023-05-10T13:16:05.407Z,100993.81
2023-05-10T13:18:34.511Z,101000.56
2023-05-10T13:21:03.328Z,100996.13
2023-05-10T13:23:30.949Z,101001.53
2023-05-10T13:25:58.611Z,101000.84
2023-05-10T13:28:27.205Z,100999.09
2023-05-10T13:30:54.918Z,100998.00
2023-05-10T13:33:22.540Z,101007.75
2023-05-10T13:35:53.187Z,101009.97
2023-05-10T13:38:22.615Z,101010.44
2023-05-10T13:40:53.445Z,100998.50
2023-05-10T13:43:21.327Z,101005.63
2023-05-10T13:45:48.960Z,101006.22
2023-05-10T13:48:16.647Z,101009.50
2023-05-10T13:50:45.251Z,101014.06
2023-05-10T13:53:15.342Z,101013.84
2023-05-10T13:55:43.553Z,101007.06
2023-05-10T13:58:11.622Z,101005.78
2023-05-10T14:00:39.268Z,101001.31
2023-05-10T14:03:07.427Z,100998.09
2023-05-10T14:05:35.236Z,101006.63
2023-05-10T14:08:02.914Z,101000.31
2023-05-10T14:10:32.130Z,101011.41
2023-05-10T14:13:00.072Z,100998.72
2023-05-10T14:15:27.928Z,101006.47
2023-05-10T14:17:55.543Z,101007.63
2023-05-10T14:20:23.136Z,101009.91
2023-05-10T14:22:50.748Z,101017.56
2023-05-10T14:25:18.630Z,101010.44
2023-05-10T14:27:48.721Z,101011.16
2023-05-10T14:30:16.963Z,101013.81
2023-05-10T14:32:44.849Z,101006.59
2023-05-10T14:35:14.452Z,101008.28
2023-05-10T14:37:43.810Z,101001.91
2023-05-10T14:40:12.825Z,101001.97
2023-05-10T14:42:40.458Z,101000.59
2023-05-10T14:45:10.859Z,101005.91
2023-05-10T14:47:38.487Z,100995.94
2023-05-10T14:50:08.048Z,101002.19
2023-05-10T14:52:35.867Z,101006.13
2023-05-10T14:55:03.704Z,101006.97
2023-05-10T14:57:31.719Z,101005.38
2023-05-10T14:59:59.406Z,101001.88
2023-05-10T15:02:28.732Z,101012.06
2023-05-10T15:04:56.826Z,101007.03
2023-05-10T15:07:25.263Z,101016.03
2023-05-10T15:09:53.552Z,101015.78
2023-05-10T15:12:21.200Z,101018.34
2023-05-10T15:14:48.868Z,101018.84
2023-05-10T15:17:17.219Z,101017.00
2023-05-10T15:19:46.195Z,101015.19
2023-05-10T15:22:13.816Z,101016.28
2023-05-10T15:24:41.526Z,101022.03
2023-05-10T15:27:09.707Z,101013.16
2023-05-10T15:29:37.326Z,101027.44
2023-05-10T15:32:05.133Z,101020.19
2023-05-10T15:34:34.913Z,101028.22
2023-05-10T15:37:04.914Z,101029.75
2023-05-10T15:39:32.529Z,101033.28
2023-05-10T15:42:00.223Z,101034.47
2023-05-10T15:44:27.906Z,101034.19
2023-05-10T15:46:55.544Z,101044.03
2023-05-10T15:49:23.201Z,101043.53
2023-05-10T15:51:50.831Z,101042.28
2023-05-10T15:54:19.780Z,101049.34
2023-05-10T15:56:47.400Z,101053.41
2023-05-10T15:59:14.956Z,101048.53
2023-05-10T16:01:42.707Z,101052.75
2023-05-10T16:04:10.383Z,101050.16
2023-05-10T16:06:38.109Z,101064.13
2023-05-10T16:09:05.717Z,101064.84
2023-05-10T16:11:34.694Z,101062.84
2023-05-10T16:14:02.498Z,101069.44
2023-05-10T16:16:30.342Z,101079.16
2023-05-10T16:19:00.934Z,101069.09
2023-05-10T16:21:28.996Z,101080.72
2023-05-10T16:23:56.646Z,101078.59
2023-05-10T16:26:24.299Z,101079.88
2023-05-10T16:28:53.444Z,101078.94
2023-05-10T16:31:21.070Z,101080.81
2023-05-10T16:33:48.809Z,101085.28
2023-05-10T16:36:16.412Z,101089.56
2023-05-10T16:38:44.018Z,101087.34
2023-05-10T16:41:11.865Z,101092.88
2023-05-10T16:43:39.473Z,101092.88
2023-05-10T16:46:12.714Z,101102.22
2023-05-10T16:48:40.470Z,101104.69
2023-05-10T16:51:08.233Z,101101.72
2023-05-10T16:53:36.222Z,101099.50
2023-05-10T16:56:04.229Z,101105.03
2023-05-10T16:58:33.403Z,101108.75
2023-05-10T17:01:01.209Z,101112.41
2023-05-10T17:03:30.319Z,101099.50
2023-05-10T17:05:58.932Z,101113.34
2023-05-10T17:08:26.591Z,101108.19
2023-05-10T17:10:54.241Z,101114.72
2023-05-10T17:13:22.165Z,101109.13
2023-05-10T17:15:50.700Z,101124.66
2023-05-10T17:18:19.454Z,101126.19
2023-05-10T17:20:48.940Z,101130.75
2023-05-10T17:23:17.297Z,101126.66
2023-05-10T17:25:44.927Z,101124.88
2023-05-10T17:28:12.521Z,101125.31
2023-05-10T17:30:40.187Z,101125.16
2023-05-10T17:33:07.898Z,101131.53
2023-05-10T17:35:35.562Z,101135.03
2023-05-10T17:38:04.496Z,101134.00
2023-05-10T17:40:32.232Z,101147.22
2023-05-10T17:42:59.941Z,101141.84
2023-05-10T17:45:27.582Z,101149.91
2023-05-10T17:47:55.301Z,101151.47
2023-05-10T17:50:22.913Z,101152.06
2023-05-10T17:52:50.603Z,101156.63
2023-05-10T17:55:20.031Z,101161.25
2023-05-10T17:57:49.872Z,101160.78
2023-05-10T18:00:19.890Z,101166.19
2023-05-10T18:02:47.496Z,101163.47
2023-05-10T18:05:15.372Z,101159.66
2023-05-10T18:07:43.799Z,101166.81
2023-05-10T18:10:12.137Z,101165.09
2023-05-10T18:12:41.140Z,101169.75
2023-05-10T18:15:09.839Z,101172.34
2023-05-10T18:17:37.510Z,101172.88
2023-05-10T18:20:06.050Z,101178.38
2023-05-10T18:22:34.876Z,101177.47
2023-05-10T18:25:02.533Z,101185.44
2023-05-10T18:27:30.228Z,101185.94
2023-05-10T18:29:59.183Z,101183.53
2023-05-10T18:32:26.913Z,101190.19
2023-05-10T18:34:55.787Z,101192.91
2023-05-10T18:37:23.642Z,101200.63
2023-05-10T18:39:52.369Z,101203.44
2023-05-10T18:42:20.569Z,101209.91
2023-05-10T18:44:48.242Z,101215.38
2023-05-10T18:47:17.308Z,101223.09
2023-05-10T18:49:46.138Z,101219.63
2023-05-10T18:52:15.598Z,101221.72
2023-05-10T18:54:43.456Z,101229.78
2023-05-10T18:57:12.550Z,101230.22
2023-05-10T18:59:40.258Z,101231.03
2023-05-10T19:02:08.677Z,101231.66
2023-05-10T19:04:37.781Z,101238.47
2023-05-10T19:07:05.557Z,101248.84
2023-05-10T19:09:33.303Z,101247.19
2023-05-10T19:12:01.462Z,101247.44
2023-05-10T19:14:29.411Z,101259.00
2023-05-10T19:16:57.250Z,101260.25
2023-05-10T19:19:24.958Z,101265.81
2023-05-10T19:21:53.944Z,101271.00
2023-05-10T19:24:23.335Z,101280.47
2023-05-10T19:26:51.176Z,101276.78
2023-05-10T19:29:18.933Z,101272.84
2023-05-10T19:31:46.979Z,101284.19
2023-05-10T19:34:14.660Z,101283.56
2023-05-10T19:36:42.352Z,101285.44
2023-05-10T19:39:11.555Z,101292.84
2023-05-10T19:41:39.147Z,101294.69
2023-05-10T19:44:06.764Z,101301.13
2023-05-10T19:46:34.422Z,101299.44
2023-05-10T19:49:02.216Z,101303.97
2023-05-10T19:51:29.935Z,101306.66
2023-05-10T19:53:58.110Z,101313.88
2023-05-10T19:56:28.707Z,101314.91
2023-05-10T19:58:56.304Z,101313.88
2023-05-10T20:01:24.030Z,101309.31
2023-05-10T20:03:51.970Z,101313.44
2023-05-10T20:06:19.696Z,101317.75
2023-05-10T20:08:47.319Z,101317.53
2023-05-10T20:11:14.891Z,101319.78
2023-05-10T20:13:43.906Z,101323.69
2023-05-10T20:16:12.257Z,101320.41
2023-05-10T20:18:39.959Z,101322.44
2023-05-10T20:21:07.569Z,101331.72
2023-05-10T20:23:35.272Z,101334.34
2023-05-10T20:26:03.553Z,101334.56
2023-05-10T20:28:31.204Z,101344.63
2023-05-10T20:31:01.893Z,101344.25
2023-05-10T20:33:29.649Z,101346.28
2023-05-10T20:35:57.358Z,101342.38
2023-05-10T20:38:25.011Z,101346.69
2023-05-10T20:40:52.600Z,101350.41
2023-05-10T20:43:21.277Z,101351.66
2023-05-10T20:45:50.119Z,101353.31
2023-05-10T20:48:19.815Z,101344.06
2023-05-10T20:50:47.513Z,101351.88
2023-05-10T20:53:15.455Z,101345.91
2023-05-10T20:55:43.024Z,101344.88
2023-05-10T20:58:10.653Z,101344.50
2023-05-10T21:00:38.249Z,101349.41
2023-05-10T21:03:06.087Z,101335.19
2023-05-10T21:05:36.013Z,101343.88
2023-05-10T21:08:03.671Z,101342.03
2023-05-10T21:10:31.608Z,101344.69
2023-05-10T21:12:59.217Z,101344.69
2023-05-10T21:15:27.740Z,101339.75
2023-05-10T21:17:55.719Z,101347.31
2023-05-10T21:20:24.075Z,101346.28
2023-05-10T21:22:53.090Z,101340.91
2023-05-10T21:25:20.786Z,101355.31
2023-05-10T21:27:48.347Z,101353.22
2023-05-10T21:30:16.375Z,101349.34
2023-05-10T21:32:44.446Z,101349.53
2023-05-10T21:35:12.234Z,101343.31
2023-05-10T21:37:39.899Z,101359.59
2023-05-10T21:40:09.924Z,101344.13
2023-05-10T21:42:37.546Z,101356.06
2023-05-10T21:45:05.768Z,101351.91
2023-05-10T21:47:33.503Z,101362.00
2023-05-10T21:50:01.380Z,101352.47
2023-05-10T21:52:29.034Z,101350.16
2023-05-10T21:54:56.948Z,101356.72
2023-05-10T21:57:26.089Z,101355.69
2023-05-10T21:59:53.719Z,101366.19
2023-05-10T22:02:21.381Z,101361.25
2023-05-10T22:04:49.012Z,101363.25
2023-05-10T22:07:16.925Z,101366.88
2023-05-10T22:09:44.837Z,101363.97
2023-05-10T22:12:13.449Z,101374.28
2023-05-10T22:14:42.808Z,101372.22
2023-05-10T22:17:10.447Z,101369.91
2023-05-10T22:19:38.056Z,101372.34
2023-05-10T22:22:05.738Z,101381.44
2023-05-10T22:24:33.414Z,101381.03
2023-05-10T22:27:01.044Z,101383.31
2023-05-10T22:29:28.821Z,101381.72
2023-05-10T22:31:58.081Z,101393.53
2023-05-10T22:34:26.691Z,101384.88
2023-05-10T22:36:54.288Z,101386.56
2023-05-10T22:39:21.917Z,101384.88
2023-05-10T22:41:49.542Z,101389.28
2023-05-10T22:44:17.607Z,101391.13
2023-05-10T22:46:45.299Z,101393.81
2023-05-10T22:49:14.438Z,101387.22
2023-05-10T22:51:42.073Z,101392.81
2023-05-10T22:54:09.990Z,101398.16
2023-05-10T22:56:37.635Z,101399.63
2023-05-10T22:59:05.322Z,101405.41
2023-05-10T23:01:33.094Z,101408.72
2023-05-10T23:04:00.705Z,101405.84
2023-05-10T23:06:29.672Z,101403.78
2023-05-10T23:08:57.248Z,101406.13
2023-05-10T23:11:25.081Z,101402.22
2023-05-10T23:13:52.889Z,101412.31
2023-05-10T23:16:20.552Z,101418.50
2023-05-10T23:18:48.392Z,101412.50
2023-05-10T23:21:16.960Z,101408.13
2023-05-10T23:23:46.090Z,101413.50
2023-05-10T23:26:13.731Z,101402.59
2023-05-10T23:28:41.339Z,101408.97
2023-05-10T23:31:08.950Z,101399.28
2023-05-10T23:33:36.525Z,101404.47
2023-05-10T23:36:04.125Z,101403.19
2023-05-10T23:38:32.110Z,101413.06
2023-05-10T23:41:01.398Z,101407.69
2023-05-10T23:43:28.958Z,101409.53
2023-05-10T23:45:57.707Z,101405.41
2023-05-10T23:48:26.017Z,101410.16
2023-05-10T23:50:53.922Z,101420.59
2023-05-10T23:53:21.492Z,101415.00
2023-05-10T23:55:49.078Z,101420.75
2023-05-10T23:58:18.006Z,101417.25
